Time;durP1;ratioP1;P1;durP2;ratioP2;P2;SDS_P1;SDS_P2;PMS_P1;PMS_P2;Temp;Humidity;BMP_temperature;BMP_pressure;BME280_temperature;BME280_humidity;BME280_pressure;Samples;Min_cycle;Max_cycle;Signal;HPM_P1;HPM_P2
2023/07/08 00:02:12;;;;;;;4.75;1.88;;;;;;;15.24;42.50;102118.28;4945223;28;20060;-70
2023/07/08 00:04:39;;;;;;;5.40;1.83;;;;;;;15.21;42.76;102128.03;4961923;28;20553;-70
2023/07/08 00:07:11;;;;;;;2.65;1.30;;;;;;;15.21;42.39;102112.25;4961978;28;20100;-68
2023/07/08 00:09:36;;;;;;;;;;;;;;;15.14;42.57;102107.22;4952949;28;20126;-68
2023/07/08 00:12:08;;;;;;;3.65;1.42;;;;;;;15.20;42.31;102105.28;4961517;28;19962;-68
2023/07/08 00:14:34;;;;;;;4.00;1.70;;;;;;;15.06;42.55;102098.78;4955809;28;20062;-68
2023/07/08 00:17:02;;;;;;;4.72;2.17;;;;;;;15.13;42.58;102102.88;4959661;28;20129;-69
2023/07/08 00:19:27;;;;;;;4.00;1.45;;;;;;;15.07;42.37;102105.75;4959269;28;20291;-68
2023/07/08 00:21:53;;;;;;;4.38;1.30;;;;;;;15.07;42.44;102094.38;4961655;28;20619;-67
2023/07/08 00:24:18;;;;;;;3.10;1.52;;;;;;;15.08;42.39;102091.69;4961830;28;20042;-68
2023/07/08 00:26:48;;;;;;;2.70;1.20;;;;;;;15.00;42.57;102099.03;4956769;28;20125;-69
2023/07/08 00:29:16;;;;;;;4.60;1.77;;;;;;;15.01;42.82;102100.72;4946859;28;20034;-69
2023/07/08 00:31:41;;;;;;;3.00;1.40;;;;;;;14.99;42.28;102099.91;4959796;28;20579;-69
2023/07/08 00:34:07;;;;;;;4.10;1.73;;;;;;;14.95;42.62;102107.09;4961468;28;20059;-68
2023/07/08 00:36:34;;;;;;;4.20;1.48;;;;;;;14.96;42.67;102105.31;4970898;28;20038;-67
2023/07/08 00:38:59;;;;;;;5.40;2.35;;;;;;;14.88;42.67;102110.88;4977325;28;20042;-67
2023/07/08 00:41:32;;;;;;;7.47;2.17;;;;;;;14.89;42.56;102102.06;4952470;28;20043;-68
2023/07/08 00:43:59;;;;;;;4.63;1.92;;;;;;;15.00;42.30;102096.38;4959706;28;20316;-69
2023/07/08 00:46:26;;;;;;;4.55;1.52;;;;;;;14.97;42.29;102094.75;4952437;28;20053;-67
2023/07/08 00:49:08;;;;;;;4.63;1.60;;;;;;;14.98;42.25;102096.44;4964681;28;20393;-68
2023/07/08 00:51:37;;;;;;;2.70;1.40;;;;;;;14.96;42.32;102094.78;4957443;28;20050;-67
2023/07/08 00:54:16;;;;;;;4.50;1.50;;;;;;;14.89;42.40;102093.31;4976754;28;20033;-68
2023/07/08 00:56:45;;;;;;;4.40;1.40;;;;;;;14.85;42.71;102094.34;4973016;28;20093;-69
2023/07/08 00:59:36;;;;;;;3.90;1.42;;;;;;;14.87;42.74;102097.78;4959735;28;20034;-68
2023/07/08 01:02:06;;;;;;;2.90;2.25;;;;;;;14.76;42.93;102091.16;4961631;28;20039;-71
2023/07/08 01:04:43;;;;;;;3.10;1.50;;;;;;;14.81;42.83;102093.59;4957740;28;20058;-70
2023/07/08 01:07:11;;;;;;;2.88;1.55;;;;;;;14.79;42.89;102098.09;4955341;28;20031;-69
2023/07/08 01:09:43;;;;;;;4.28;1.83;;;;;;;14.84;42.78;102095.28;4956999;28;20045;-70
2023/07/08 01:12:12;;;;;;;2.88;2.08;;;;;;;14.72;43.14;102099.22;4972949;28;20413;-70
2023/07/08 01:14:42;;;;;;;5.28;2.40;;;;;;;14.69;43.17;102089.66;4950116;28;20045;-70
2023/07/08 01:17:13;;;;;;;5.38;1.52;;;;;;;14.69;43.20;102105.47;4959352;28;20496;-69
2023/07/08 01:19:44;;;;;;;2.55;1.30;;;;;;;14.68;43.30;102105.50;4955379;28;20439;-69
2023/07/08 01:22:10;;;;;;;5.70;1.73;;;;;;;14.70;43.32;102101.94;4972128;28;20065;-69
2023/07/08 01:24:38;;;;;;;6.35;1.75;;;;;;;14.59;43.93;102112.00;4954468;28;20057;-68
2023/07/08 01:27:06;;;;;;;6.90;1.65;;;;;;;14.62;43.60;102109.25;4958672;28;20116;-70
2023/07/08 01:29:33;;;;;;;5.85;1.50;;;;;;;14.59;43.60;102101.47;4956469;28;20030;-70
2023/07/08 01:32:02;;;;;;;5.35;1.88;;;;;;;14.51;44.08;102100.91;4949960;28;20046;-69
2023/07/08 01:34:29;;;;;;;4.30;1.65;;;;;;;14.52;44.01;102103.47;4955326;28;20225;-71
2023/07/08 01:37:00;;;;;;;4.50;1.30;;;;;;;14.55;44.01;102105.97;4957070;28;20054;-72
2023/07/08 01:39:28;;;;;;;2.72;1.73;;;;;;;14.52;44.30;102098.22;4958482;28;20231;-71
2023/07/08 01:41:57;;;;;;;3.17;2.08;;;;;;;14.54;44.05;102090.25;4959342;28;20150;-72
2023/07/08 01:44:30;;;;;;;4.13;2.05;;;;;;;14.46;44.40;102093.19;4959366;28;20109;-72
2023/07/08 01:47:00;;;;;;;7.65;2.72;;;;;;;14.50;44.41;102088.63;4957717;28;20448;-71
2023/07/08 01:49:26;;;;;;;5.90;2.15;;;;;;;14.51;44.56;102083.34;4955849;28;20034;-71
2023/07/08 01:51:56;;;;;;;6.03;2.55;;;;;;;14.43;44.74;102084.53;4965376;28;20042;-67
2023/07/08 01:54:21;;;;;;;6.70;3.75;;;;;;;14.55;44.93;102084.09;4957577;28;20038;-69
2023/07/08 01:56:47;;;;;;;4.70;2.63;;;;;;;14.52;44.80;102079.81;4938414;28;20092;-68
2023/07/08 01:59:12;;;;;;;4.47;2.80;;;;;;;14.59;44.49;102080.44;4974807;28;20026;-68
2023/07/08 02:01:38;;;;;;;5.13;3.05;;;;;;;14.55;44.90;102076.19;4952144;28;20078;-67
2023/07/08 02:04:05;;;;;;;3.38;2.30;;;;;;;14.58;44.47;102081.31;4962221;28;20061;-67
2023/07/08 02:06:31;;;;;;;6.40;3.08;;;;;;;14.63;44.54;102076.75;4939897;28;20058;-67
2023/07/08 02:09:08;;;;;;;4.95;2.50;;;;;;;14.67;44.36;102085.38;4972685;28;20069;-67
2023/07/08 02:11:33;;;;;;;4.38;2.63;;;;;;;14.57;44.40;102074.38;4974234;28;20311;-66
2023/07/08 02:14:00;;;;;;;6.35;3.28;;;;;;;14.48;44.98;102075.56;4966028;28;20030;-67
2023/07/08 02:16:28;;;;;;;7.10;3.50;;;;;;;14.38;45.17;102074.16;4959474;28;20525;-66
2023/07/08 02:18:53;;;;;;;9.20;3.13;;;;;;;14.40;45.08;102068.84;4956405;28;20727;-67
2023/07/08 02:21:22;;;;;;;4.65;3.70;;;;;;;14.45;44.99;102064.28;4976278;28;20512;-68
2023/07/08 02:23:50;;;;;;;5.47;2.92;;;;;;;14.51;44.72;102069.34;4974416;28;20038;-67
2023/07/08 02:26:15;;;;;;;6.78;3.92;;;;;;;14.48;44.92;102058.94;4957531;28;20062;-67
2023/07/08 02:28:41;;;;;;;4.70;2.78;;;;;;;14.46;45.08;102066.03;4959913;28;20057;-67
2023/07/08 02:31:09;;;;;;;6.95;3.13;;;;;;;14.49;44.85;102065.91;4977819;28;20280;-68
2023/07/08 02:33:36;;;;;;;6.07;3.50;;;;;;;14.38;45.13;102068.88;4964721;28;20299;-68
2023/07/08 02:36:02;;;;;;;5.95;3.60;;;;;;;14.41;45.05;102057.44;4943857;28;20290;-68
2023/07/08 02:38:28;;;;;;;12.30;3.97;;;;;;;14.47;44.96;102062.47;4960885;28;20047;-68
2023/07/08 02:40:53;;;;;;;5.93;3.53;;;;;;;14.47;45.17;102062.47;4958210;28;20038;-69
2023/07/08 02:43:19;;;;;;;3.85;3.05;;;;;;;14.41;45.18;102053.03;4958488;28;20031;-69
2023/07/08 02:45:44;;;;;;;11.98;4.00;;;;;;;14.37;45.12;102056.66;4961069;28;20045;-69
2023/07/08 02:48:10;;;;;;;9.07;3.80;;;;;;;14.39;45.24;102056.59;4976457;28;20051;-69
2023/07/08 02:50:35;;;;;;;5.18;3.30;;;;;;;14.33;45.72;102060.31;4959661;28;20121;-68
2023/07/08 02:53:00;;;;;;;8.25;4.10;;;;;;;14.31;45.49;102057.75;4943262;28;20656;-68
2023/07/08 02:55:26;;;;;;;4.95;3.60;;;;;;;14.26;45.58;102064.09;4960966;28;20577;-68
2023/07/08 02:57:51;;;;;;;5.10;3.72;;;;;;;14.27;45.56;102066.66;4958461;28;20078;-70
2023/07/08 03:00:17;;;;;;;8.25;3.65;;;;;;;14.18;45.75;102058.25;4959465;28;20405;-68
2023/07/08 03:02:42;;;;;;;5.70;3.67;;;;;;;14.31;45.50;102057.75;4965309;28;20089;-66
2023/07/08 03:05:08;;;;;;;7.05;4.30;;;;;;;14.23;45.84;102054.56;4964465;28;20057;-66
2023/07/08 03:07:34;;;;;;;5.00;3.80;;;;;;;14.29;45.57;102056.94;4961746;28;20998;-67
2023/07/08 03:10:00;;;;;;;6.78;4.38;;;;;;;14.24;45.65;102051.00;4964995;28;20034;-66
2023/07/08 03:12:25;;;;;;;5.13;3.35;;;;;;;14.22;45.51;102046.72;4962481;28;20065;-68
2023/07/08 03:14:53;;;;;;;7.60;3.58;;;;;;;14.24;45.85;102047.53;4979665;28;20101;-71
2023/07/08 03:17:19;;;;;;;7.68;4.30;;;;;;;14.17;46.05;102039.00;4961172;28;20035;-72
2023/07/08 03:19:45;;;;;;;7.90;3.90;;;;;;;14.20;45.78;102038.88;4969460;28;20288;-70
2023/07/08 03:22:10;;;;;;;5.97;3.92;;;;;;;14.28;45.71;102038.59;4960394;28;20100;-70
2023/07/08 03:24:36;;;;;;;8.40;4.05;;;;;;;14.28;45.85;102035.97;4958673;28;20035;-70
2023/07/08 03:27:05;;;;;;;8.05;4.50;;;;;;;14.25;45.85;102043.97;4963538;28;20038;-71
2023/07/08 03:29:33;;;;;;;7.93;4.47;;;;;;;14.29;45.68;102033.28;4973608;28;20035;-70
2023/07/08 03:31:59;;;;;;;4.97;3.42;;;;;;;14.31;45.76;102036.69;4957256;28;20042;-71
2023/07/08 03:34:27;;;;;;;6.20;4.28;;;;;;;14.28;45.70;102033.34;4976194;28;20042;-70
2023/07/08 03:36:54;;;;;;;9.13;4.97;;;;;;;14.31;45.79;102022.69;4973538;28;20085;-69
2023/07/08 03:39:25;;;;;;;4.22;3.83;;;;;;;14.33;45.74;102040.13;4963182;28;20101;-70
2023/07/08 03:41:52;;;;;;;;;;;;;;;14.43;45.62;102027.50;4972732;28;20066;-67
2023/07/08 03:44:19;;;;;;;7.25;4.15;;;;;;;14.46;45.54;102029.19;4958512;28;20406;-68
2023/07/08 03:46:46;;;;;;;6.10;3.88;;;;;;;14.59;45.12;102029.56;4950702;28;20047;-66
2023/07/08 03:49:14;;;;;;;7.65;4.50;;;;;;;14.60;45.20;102034.78;4975445;28;20108;-70
2023/07/08 03:51:41;;;;;;;5.05;4.40;;;;;;;14.61;45.12;102028.56;4956692;28;20053;-67
2023/07/08 03:54:11;;;;;;;5.28;3.38;;;;;;;14.73;44.86;102028.13;4959641;28;20232;-68
2023/07/08 03:56:36;;;;;;;4.60;4.20;;;;;;;14.85;44.64;102023.28;4952797;28;20052;-70
2023/07/08 03:59:04;;;;;;;6.88;4.10;;;;;;;14.80;44.56;102030.50;4974871;28;20584;-67
2023/07/08 04:01:31;;;;;;;6.38;3.90;;;;;;;14.84;44.49;102024.22;4971945;28;20043;-68
2023/07/08 04:03:58;;;;;;;4.68;3.53;;;;;;;14.92;44.21;102032.63;4958123;28;20540;-66
2023/07/08 04:06:24;;;;;;;5.65;3.85;;;;;;;14.93;44.25;102029.09;4956405;28;20042;-66
2023/07/08 04:08:50;;;;;;;6.88;4.30;;;;;;;14.94;44.16;102026.38;4973353;28;20034;-67
2023/07/08 04:11:21;;;;;;;5.72;4.05;;;;;;;14.96;44.19;102023.72;4957742;28;20180;-73
2023/07/08 04:13:47;;;;;;;8.65;3.83;;;;;;;15.04;44.04;102016.38;4962516;28;20492;-70
2023/07/08 04:16:23;;;;;;;7.00;4.65;;;;;;;15.18;43.70;102023.69;4959387;28;20413;-71
2023/07/08 04:18:50;;;;;;;6.55;3.88;;;;;;;15.04;43.92;102011.09;4960563;28;20035;-66
2023/07/08 04:21:17;;;;;;;4.65;3.67;;;;;;;15.26;43.48;102015.50;4959911;28;20141;-71
2023/07/08 04:23:43;;;;;;;6.10;3.10;;;;;;;15.22;43.82;102017.41;4960978;28;20135;-70
2023/07/08 04:26:09;;;;;;;5.38;3.70;;;;;;;15.35;43.16;102026.53;4958245;28;20493;-67
2023/07/08 04:28:36;;;;;;;4.65;3.25;;;;;;;15.47;43.24;102019.88;4958089;28;20038;-67
2023/07/08 04:31:01;;;;;;;5.88;3.67;;;;;;;15.53;43.18;102024.88;4973366;28;20125;-66
2023/07/08 04:33:27;;;;;;;5.75;3.13;;;;;;;15.67;42.97;102023.44;4960390;28;20177;-72
2023/07/08 04:35:54;;;;;;;3.92;2.88;;;;;;;15.80;42.77;102020.19;4956776;28;20042;-72
2023/07/08 04:38:25;;;;;;;4.13;3.72;;;;;;;15.88;42.68;102014.56;4973638;28;20062;-70
2023/07/08 04:40:54;;;;;;;6.40;3.17;;;;;;;15.90;42.61;102011.88;4957761;28;20037;-67
2023/07/08 04:43:21;;;;;;;5.93;3.90;;;;;;;15.99;42.62;102019.34;4956342;28;20096;-67
2023/07/08 04:45:53;;;;;;;6.93;3.58;;;;;;;16.18;42.32;102019.44;4959048;28;20030;-68
2023/07/08 04:48:24;;;;;;;10.40;3.60;;;;;;;16.20;41.94;102028.13;4957444;28;20057;-68
2023/07/08 04:50:52;;;;;;;6.32;3.53;;;;;;;16.21;42.12;102027.19;4955232;28;20592;-69
2023/07/08 04:53:18;;;;;;;4.53;3.40;;;;;;;16.29;41.85;102017.16;4953742;28;20124;-69
2023/07/08 04:55:51;;;;;;;7.18;3.38;;;;;;;16.32;41.71;102019.63;4957086;28;20027;-69
2023/07/08 04:58:17;;;;;;;5.20;3.22;;;;;;;16.32;42.08;102024.91;4959482;28;20074;-69
2023/07/08 05:00:42;;;;;;;8.32;3.70;;;;;;;16.23;42.14;102027.97;4961081;28;20157;-68
2023/07/08 05:03:08;;;;;;;14.95;3.67;;;;;;;16.34;41.82;102022.22;4955424;28;20042;-69
2023/07/08 05:05:34;;;;;;;3.97;2.55;;;;;;;16.68;41.62;102026.75;4958189;28;20982;-69
2023/07/08 05:08:00;;;;;;;5.22;2.90;;;;;;;17.48;39.98;102028.16;4958833;28;20051;-68
2023/07/08 05:10:26;;;;;;;8.00;3.42;;;;;;;19.09;36.78;102021.22;4959795;28;20097;-69
2023/07/08 05:12:54;;;;;;;6.03;2.80;;;;;;;20.51;33.99;102024.94;4948636;28;20076;-70
2023/07/08 05:15:21;;;;;;;7.53;2.53;;;;;;;21.74;31.82;102015.94;4957084;28;20135;-68
2023/07/08 05:17:47;;;;;;;3.90;2.30;;;;;;;23.00;29.71;102018.34;4955992;28;20046;-67
2023/07/08 05:20:14;;;;;;;3.70;2.30;;;;;;;23.50;28.52;102022.63;4952622;28;20034;-68
2023/07/08 05:22:42;;;;;;;6.40;2.42;;;;;;;23.72;28.26;102013.81;4957783;28;20078;-69
2023/07/08 05:25:12;;;;;;;6.28;2.42;;;;;;;23.58;28.65;102017.56;4956543;28;20417;-68
2023/07/08 05:27:40;;;;;;;5.28;2.35;;;;;;;23.76;28.10;102016.09;4943415;28;20063;-69
2023/07/08 05:30:14;;;;;;;5.57;2.33;;;;;;;24.10;27.51;102017.97;4956987;28;20034;-68
2023/07/08 05:32:39;;;;;;;4.43;2.40;;;;;;;24.29;27.87;102017.34;4945245;28;20058;-69
2023/07/08 05:35:08;;;;;;;6.65;2.88;;;;;;;24.30;27.63;102016.34;4955047;28;20046;-69
2023/07/08 05:37:34;;;;;;;3.17;2.00;;;;;;;24.97;26.50;102013.53;4947347;28;20628;-69
2023/07/08 05:40:04;;;;;;;3.80;2.15;;;;;;;24.54;26.83;102011.69;4957116;28;20118;-69
2023/07/08 05:42:30;;;;;;;9.80;2.38;;;;;;;25.20;26.25;102011.56;4954084;28;20057;-69
2023/07/08 05:44:55;;;;;;;5.38;2.17;;;;;;;25.10;26.04;102005.28;4957653;28;20034;-73
2023/07/08 05:47:24;;;;;;;3.63;2.03;;;;;;;25.57;25.19;101999.56;4955275;28;20077;-69
2023/07/08 05:49:50;;;;;;;12.30;6.35;;;;;;;26.42;24.45;102000.97;4959936;28;20031;-70
2023/07/08 05:52:15;;;;;;;5.85;2.28;;;;;;;26.81;24.25;102001.88;4940106;28;20712;-68
2023/07/08 05:54:41;;;;;;;2.28;1.58;;;;;;;26.87;23.61;102011.16;4964728;28;20088;-69
2023/07/08 05:57:09;;;;;;;6.53;2.45;;;;;;;27.26;23.36;102003.13;4956390;28;20035;-72
2023/07/08 05:59:38;;;;;;;7.28;2.65;;;;;;;27.28;23.02;102012.72;4956472;28;20057;-73
2023/07/08 06:02:05;;;;;;;2.65;1.52;;;;;;;27.07;23.35;102004.81;4942787;28;20026;-69
2023/07/08 06:04:31;;;;;;;4.47;1.38;;;;;;;26.86;23.87;102012.19;4954847;28;20320;-69
2023/07/08 06:06:57;;;;;;;4.10;1.38;;;;;;;26.86;23.65;102018.38;4955773;28;20465;-69
2023/07/08 06:09:23;;;;;;;5.03;1.40;;;;;;;26.80;23.79;102012.72;4958080;28;20038;-67
2023/07/08 06:11:49;;;;;;;2.03;1.50;;;;;;;26.84;23.39;102008.78;4957028;28;20049;-73
2023/07/08 06:14:15;;;;;;;3.45;2.22;;;;;;;27.25;23.31;102004.09;4956460;28;20508;-70
2023/07/08 06:16:40;;;;;;;2.83;1.23;;;;;;;27.47;22.90;101998.41;4957809;28;20138;-71
2023/07/08 06:19:06;;;;;;;2.75;1.88;;;;;;;27.36;22.90;101997.72;4959249;28;20485;-70
2023/07/08 06:21:32;;;;;;;1.90;1.10;;;;;;;28.06;22.33;101995.47;4955286;28;20039;-70
2023/07/08 06:23:58;;;;;;;5.68;1.65;;;;;;;28.42;22.09;101998.25;4971379;28;20031;-70
2023/07/08 06:26:26;;;;;;;3.95;1.15;;;;;;;28.77;21.54;102000.13;4956740;28;20170;-70
2023/07/08 06:28:51;;;;;;;8.77;1.40;;;;;;;29.85;20.66;101999.81;4957362;28;20519;-70
2023/07/08 06:31:19;;;;;;;3.65;1.50;;;;;;;29.57;20.57;102006.22;4962041;28;20126;-70
2023/07/08 06:33:45;;;;;;;2.50;1.48;;;;;;;28.67;21.24;102002.88;4955363;28;20038;-71
2023/07/08 06:36:10;;;;;;;3.35;1.27;;;;;;;28.67;21.45;101994.78;4954496;28;20663;-70
2023/07/08 06:38:36;;;;;;;5.93;1.77;;;;;;;28.64;21.62;101995.13;4954757;28;20037;-70
2023/07/08 06:41:01;;;;;;;2.58;1.58;;;;;;;28.86;21.20;102001.00;4956522;28;20291;-70
2023/07/08 06:43:27;;;;;;;2.22;1.00;;;;;;;28.65;21.72;101996.78;4955461;28;20326;-70
2023/07/08 06:45:58;;;;;;;2.67;1.02;;;;;;;29.45;20.72;101995.91;4953725;28;20412;-70
2023/07/08 06:48:25;;;;;;;1.48;0.85;;;;;;;29.36;20.60;101981.53;4958890;28;20497;-70
2023/07/08 06:50:51;;;;;;;1.92;1.25;;;;;;;29.06;20.98;101986.38;4959944;28;20034;-71
2023/07/08 06:53:17;;;;;;;5.68;1.15;;;;;;;28.32;21.47;101988.41;4956278;28;20043;-69
2023/07/08 06:55:44;;;;;;;6.03;1.25;;;;;;;28.41;21.24;101983.97;4973040;28;20513;-70
2023/07/08 06:58:10;;;;;;;3.05;1.58;;;;;;;28.07;21.94;101986.41;4956466;28;20053;-70
2023/07/08 07:00:36;;;;;;;4.30;2.47;;;;;;;28.98;21.25;101982.78;4957371;28;20038;-71
2023/07/08 07:03:04;;;;;;;4.13;1.40;;;;;;;28.92;21.52;101987.75;4958995;28;20038;-72
2023/07/08 07:05:29;;;;;;;2.47;1.15;;;;;;;29.51;20.59;101974.56;4958752;28;20448;-71
2023/07/08 07:07:56;;;;;;;3.03;1.20;;;;;;;29.75;20.61;101972.97;4971466;28;20034;-71
2023/07/08 07:10:22;;;;;;;3.17;1.25;;;;;;;30.80;19.68;101965.28;4972601;28;20572;-71
2023/07/08 07:12:47;;;;;;;3.10;1.55;;;;;;;31.09;19.47;101964.78;4955821;28;20046;-72
2023/07/08 07:15:13;;;;;;;4.13;1.25;;;;;;;30.95;19.55;101974.38;4957137;28;20042;-71
2023/07/08 07:17:39;;;;;;;7.53;0.98;;;;;;;31.03;19.56;101972.72;4958767;28;20686;-70
2023/07/08 07:20:05;;;;;;;3.13;1.02;;;;;;;31.15;18.78;101972.16;4962700;28;20596;-71
2023/07/08 07:22:31;;;;;;;2.58;1.15;;;;;;;30.78;18.82;101973.56;4956411;28;20096;-70
2023/07/08 07:24:57;;;;;;;3.55;1.42;;;;;;;30.67;19.84;101970.34;4973734;28;20042;-69
2023/07/08 07:27:22;;;;;;;3.63;0.77;;;;;;;30.87;19.60;101960.91;4958891;28;20378;-71
2023/07/08 07:29:50;;;;;;;4.60;1.33;;;;;;;30.78;19.03;101965.47;4959445;28;20050;-71
2023/07/08 07:32:17;;;;;;;3.20;0.98;;;;;;;31.16;18.95;101959.53;4960310;28;20102;-71
2023/07/08 07:34:45;;;;;;;3.70;0.88;;;;;;;31.71;19.10;101964.06;4959139;28;20031;-71
2023/07/08 07:37:16;;;;;;;3.30;1.13;;;;;;;31.06;18.85;101962.41;4959144;28;20161;-70
2023/07/08 07:39:42;;;;;;;5.63;1.00;;;;;;;30.63;19.80;101959.06;4956931;28;20034;-70
2023/07/08 07:42:08;;;;;;;4.10;1.05;;;;;;;31.18;19.03;101958.34;4958899;28;20049;-69
2023/07/08 07:44:34;;;;;;;6.07;0.70;;;;;;;32.11;18.27;101953.22;4956939;28;21563;-69
2023/07/08 07:47:03;;;;;;;2.67;1.15;;;;;;;32.67;17.66;101948.41;4959469;28;20523;-69
2023/07/08 07:49:28;;;;;;;2.83;0.85;;;;;;;32.61;17.44;101949.13;4957038;28;20708;-71
2023/07/08 07:51:55;;;;;;;1.58;0.88;;;;;;;31.55;18.87;101942.53;4957659;28;20046;-70
2023/07/08 07:54:23;;;;;;;4.30;1.05;;;;;;;32.47;17.98;101952.66;4956977;28;20040;-69
2023/07/08 07:56:48;;;;;;;1.42;1.33;;;;;;;32.73;17.81;101942.28;4958063;28;20053;-70
2023/07/08 07:59:14;;;;;;;2.95;1.02;;;;;;;33.86;17.44;101940.31;4970413;28;20035;-70
2023/07/08 08:01:42;;;;;;;1.75;1.10;;;;;;;33.10;17.35;101932.44;4958719;28;20462;-71
2023/07/08 08:04:09;;;;;;;3.08;0.88;;;;;;;33.63;17.53;101938.56;4958502;28;20058;-69
2023/07/08 08:06:35;;;;;;;1.10;0.73;;;;;;;33.72;17.21;101942.03;4960731;28;20049;-70
2023/07/08 08:09:00;;;;;;;2.92;1.10;;;;;;;33.75;17.10;101940.81;4957925;28;20564;-70
2023/07/08 08:11:26;;;;;;;2.90;1.23;;;;;;;33.45;17.61;101940.84;4955497;28;20227;-70
2023/07/08 08:13:53;;;;;;;1.15;1.00;;;;;;;33.50;17.01;101949.25;4957930;28;20633;-70
2023/07/08 08:16:19;;;;;;;3.10;1.20;;;;;;;33.51;17.17;101939.25;4946179;28;20603;-71
2023/07/08 08:18:47;;;;;;;4.53;1.13;;;;;;;33.94;16.82;101942.91;4972456;28;20031;-70
2023/07/08 08:21:13;;;;;;;1.60;1.30;;;;;;;33.75;16.96;101940.81;4971018;28;20110;-70
2023/07/08 08:23:39;;;;;;;1.80;0.63;;;;;;;32.92;17.71;101942.78;4941270;28;20536;-70
2023/07/08 08:26:04;;;;;;;2.25;1.10;;;;;;;32.32;18.69;101947.16;4953490;28;20034;-69
2023/07/08 08:28:30;;;;;;;2.17;1.08;;;;;;;32.83;18.24;101932.06;4951328;28;20497;-71
2023/07/08 08:30:55;;;;;;;1.98;0.95;;;;;;;33.46;17.45;101937.13;4969291;28;20034;-71
2023/07/08 08:33:21;;;;;;;3.38;1.17;;;;;;;31.88;18.30;101937.81;4938145;28;20136;-69
2023/07/08 08:35:46;;;;;;;3.63;1.15;;;;;;;32.24;18.27;101939.97;4953677;28;20045;-69
2023/07/08 08:38:12;;;;;;;4.78;1.58;;;;;;;32.62;18.02;101937.31;4961354;28;20509;-70
2023/07/08 08:40:40;;;;;;;2.15;1.73;;;;;;;32.89;17.98;101932.34;4951653;28;23152;-70
2023/07/08 08:43:14;;;;;;;5.22;1.25;;;;;;;32.36;18.57;101933.09;4951154;28;20046;-69
2023/07/08 08:46:04;;;;;;;2.83;1.00;;;;;;;32.75;18.56;101937.50;4951382;28;20129;-69
2023/07/08 08:48:40;;;;;;;5.28;1.63;;;;;;;33.36;17.58;101931.97;4952089;28;20078;-69
2023/07/08 08:51:12;;;;;;;1.95;1.30;;;;;;;33.74;17.73;101933.72;4945558;28;20386;-70
2023/07/08 08:53:37;;;;;;;4.70;1.30;;;;;;;33.57;17.29;101936.63;4965006;28;20042;-69
2023/07/08 08:56:18;;;;;;;6.05;1.25;;;;;;;32.47;18.86;101942.66;4952981;28;20398;-70
2023/07/08 08:59:15;;;;;;;8.10;1.05;;;;;;;32.94;18.58;101938.03;4955065;28;20030;-71
2023/07/08 09:01:40;;;;;;;4.97;1.10;;;;;;;33.83;17.10;101938.00;4946665;28;20040;-69
2023/07/08 09:04:16;;;;;;;2.95;1.20;;;;;;;33.60;17.20;101933.53;4938818;28;20101;-70
2023/07/08 09:06:47;;;;;;;1.42;0.88;;;;;;;32.98;17.45;101933.94;4947807;28;21214;-71
2023/07/08 09:09:17;;;;;;;;;;;;;;;33.01;18.07;101933.53;4939651;28;20035;-71
2023/07/08 09:11:53;;;;;;;1.48;1.38;;;;;;;33.49;17.47;101930.47;4949874;28;20301;-70
2023/07/08 09:14:24;;;;;;;4.70;1.20;;;;;;;33.43;17.64;101940.19;4918229;28;20410;-70
2023/07/08 09:17:15;;;;;;;2.38;1.20;;;;;;;32.63;18.10;101941.69;4934466;28;20182;-70
2023/07/08 09:19:49;;;;;;;1.80;1.48;;;;;;;32.15;18.51;101938.34;4933868;28;20042;-71
2023/07/08 09:22:30;;;;;;;3.00;1.48;;;;;;;32.31;18.81;101935.50;4937077;28;20035;-69
2023/07/08 09:25:03;;;;;;;;;;;;;;;32.20;18.45;101942.16;4950501;28;20413;-70
2023/07/08 09:27:28;;;;;;;1.92;1.25;;;;;;;32.35;18.81;101931.41;4933995;28;19929;-69
2023/07/08 09:29:55;;;;;;;4.25;0.80;;;;;;;31.99;18.99;101929.31;4935641;28;20039;-70
2023/07/08 09:32:27;;;;;;;2.65;1.35;;;;;;;31.78;18.67;101926.38;4933600;28;20126;-68
2023/07/08 09:35:03;;;;;;;4.38;1.33;;;;;;;32.02;18.59;101934.34;4948251;28;20440;-69
2023/07/08 09:37:32;;;;;;;3.50;1.38;;;;;;;31.16;19.21;101927.97;4932420;28;20568;-70
2023/07/08 09:39:59;;;;;;;1.52;1.10;;;;;;;30.66;19.78;101926.34;4933982;28;20498;-70
2023/07/08 09:42:31;;;;;;;2.95;1.30;;;;;;;30.70;20.21;101919.59;4932718;28;20043;-70
2023/07/08 09:45:13;;;;;;;4.13;1.73;;;;;;;31.02;20.73;101917.03;4933946;28;20478;-70
2023/07/08 09:47:40;;;;;;;1.50;1.13;;;;;;;30.58;20.22;101913.72;4931529;28;20051;-71
2023/07/08 09:50:28;;;;;;;2.03;0.90;;;;;;;30.17;21.38;101910.13;4933689;28;20030;-71
2023/07/08 09:53:00;;;;;;;1.75;1.40;;;;;;;29.99;20.08;101918.31;4936276;28;20050;-68
2023/07/08 09:55:27;;;;;;;2.55;1.00;;;;;;;29.96;20.75;101919.50;4934775;28;20051;-70
2023/07/08 09:57:55;;;;;;;4.13;1.20;;;;;;;29.92;21.46;101915.44;4935370;28;20046;-70
2023/07/08 10:00:33;;;;;;;2.70;0.90;;;;;;;29.51;21.82;101914.47;4948612;28;20050;-70
2023/07/08 10:03:05;;;;;;;1.75;1.00;;;;;;;29.69;21.08;101911.69;4933517;28;20186;-70
2023/07/08 10:05:36;;;;;;;2.00;1.35;;;;;;;29.53;21.81;101912.44;4935607;28;20039;-70
2023/07/08 10:08:11;;;;;;;1.85;1.33;;;;;;;29.92;22.31;101917.31;4936125;28;20116;-70
2023/07/08 10:10:38;;;;;;;2.30;1.33;;;;;;;30.15;21.41;101920.22;4931500;28;20038;-70
2023/07/08 10:13:29;;;;;;;3.20;1.40;;;;;;;29.26;21.75;101916.19;4948164;28;20046;-73
2023/07/08 10:16:12;;;;;;;;;;;;;;;28.90;22.83;101917.16;4936208;28;20031;-69
2023/07/08 10:18:37;;;;;;;3.33;1.00;;;;;;;29.45;23.06;101915.94;4945337;28;20012;-68
2023/07/08 10:21:13;;;;;;;2.75;1.33;;;;;;;29.39;22.10;101915.75;4938570;28;20037;-70
2023/07/08 10:23:51;;;;;;;2.58;2.15;;;;;;;29.71;21.99;101920.47;4935778;28;20087;-70
2023/07/08 10:26:32;;;;;;;2.13;1.45;;;;;;;29.80;21.75;101914.09;4944120;28;20043;-69
2023/07/08 10:29:03;;;;;;;2.90;1.00;;;;;;;30.16;22.43;101911.16;4939786;28;20555;-70
2023/07/08 10:32:04;;;;;;;1.90;1.30;;;;;;;30.63;22.06;101905.09;4937169;28;20129;-70
2023/07/08 10:34:38;;;;;;;2.95;1.50;;;;;;;30.20;21.85;101909.81;4949296;28;20051;-69
2023/07/08 10:37:11;;;;;;;2.53;1.52;;;;;;;30.35;22.88;101910.78;4953862;28;20043;-70
2023/07/08 10:40:28;;;;;;;2.92;1.45;;;;;;;29.86;21.91;101909.88;4922194;28;20578;-69
2023/07/08 10:43:07;;;;;;;3.05;1.35;;;;;;;30.29;20.98;101903.41;4937109;28;20098;-70
2023/07/08 10:45:37;;;;;;;4.20;1.33;;;;;;;30.44;21.58;101897.31;4936400;28;20370;-70
2023/07/08 10:48:18;;;;;;;2.17;1.27;;;;;;;30.87;20.80;101896.13;4938467;28;20047;-70
2023/07/08 10:51:16;;;;;;;1.70;0.95;;;;;;;30.45;20.30;101896.31;4938454;28;20328;-70
2023/07/08 10:54:09;;;;;;;2.72;1.55;;;;;;;30.24;21.55;101889.56;4911504;28;20059;-68
2023/07/08 10:56:51;;;;;;;2.13;1.90;;;;;;;30.48;21.23;101891.41;4933995;28;21280;-68
2023/07/08 10:59:42;;;;;;;3.30;1.63;;;;;;;30.82;21.17;101892.25;4937882;28;20079;-70
2023/07/08 11:02:26;;;;;;;;;;;;;;;31.18;21.02;101885.44;4948408;28;20074;-69
2023/07/08 11:05:23;;;;;;;2.90;1.60;;;;;;;31.15;19.86;101882.22;4956400;28;20637;-69
2023/07/08 11:07:57;;;;;;;1.77;1.40;;;;;;;30.95;20.98;101884.47;4951949;28;20540;-69
2023/07/08 11:10:34;;;;;;;2.42;1.92;;;;;;;31.21;20.82;101890.47;4954491;28;20092;-70
2023/07/08 11:13:12;;;;;;;2.38;1.33;;;;;;;30.45;22.23;101885.53;4972880;28;20054;-70
2023/07/08 11:16:03;;;;;;;1.95;1.52;;;;;;;30.66;22.05;101876.94;4954385;28;20032;-71
2023/07/08 11:18:55;;;;;;;4.05;1.90;;;;;;;30.80;22.29;101874.38;4950714;28;20078;-70
2023/07/08 11:21:29;;;;;;;4.70;1.80;;;;;;;31.25;21.20;101879.31;4930846;28;20081;-71
2023/07/08 11:24:06;;;;;;;3.13;1.35;;;;;;;30.98;21.05;101878.69;4936096;28;20523;-69
2023/07/08 11:26:43;;;;;;;1.80;1.52;;;;;;;31.00;20.88;101866.75;4963569;28;20047;-71
2023/07/08 11:29:24;;;;;;;2.78;1.65;;;;;;;31.18;20.91;101869.25;4937172;28;20034;-71
2023/07/08 11:31:51;;;;;;;;;;;;;;;31.32;21.87;101866.81;4936739;28;20073;-70
2023/07/08 11:34:19;;;;;;;1.88;1.35;;;;;;;30.95;22.63;101860.16;4937174;28;19925;-71
2023/07/08 11:36:47;;;;;;;1.70;1.05;;;;;;;31.19;21.49;101861.97;4936166;28;20540;-71
2023/07/08 11:39:27;;;;;;;3.13;1.40;;;;;;;30.25;22.31;101861.59;4969484;28;20038;-71